sensor_id;sensor_type;location;lat;lon;timestamp;temperature;humidity
8715;DHT22;4394;51.208;8.904;2023-05-10T00:00:59;15.90;99.90
8715;DHT22;4394;51.208;8.904;2023-05-10T00:03:47;15.90;99.90
8715;DHT22;4394;51.208;8.904;2023-05-10T00:06:35;15.90;99.90
8715;DHT22;4394;51.208;8.904;2023-05-10T00:09:23;15.90;99.90
8715;DHT22;4394;51.208;8.904;2023-05-10T00:12:11;16.00;99.90
8715;DHT22;4394;51.208;8.904;2023-05-10T00:14:59;16.00;99.90
8715;DHT22;4394;51.208;8.904;2023-05-10T00:17:49;16.00;99.90
8715;DHT22;4394;51.208;8.904;2023-05-10T00:20:37;16.00;99.90
8715;DHT22;4394;51.208;8.904;2023-05-10T00:23:25;16.00;99.90
8715;DHT22;4394;51.208;8.904;2023-05-10T00:26:13;16.10;99.90
8715;DHT22;4394;51.208;8.904;2023-05-10T00:29:01;16.10;99.90
8715;DHT22;4394;51.208;8.904;2023-05-10T00:31:49;16.10;99.90
8715;DHT22;4394;51.208;8.904;2023-05-10T00:34:39;16.10;99.90
8715;DHT22;4394;51.208;8.904;2023-05-10T00:37:27;16.00;99.90
8715;DHT22;4394;51.208;8.904;2023-05-10T00:40:15;16.00;99.90
8715;DHT22;4394;51.208;8.904;2023-05-10T00:43:04;16.00;99.90
8715;DHT22;4394;51.208;8.904;2023-05-10T00:45:53;16.00;99.90
8715;DHT22;4394;51.208;8.904;2023-05-10T00:48:42;16.00;99.90
8715;DHT22;4394;51.208;8.904;2023-05-10T00:51:32;16.10;99.90
8715;DHT22;4394;51.208;8.904;2023-05-10T00:54:20;16.00;99.90
8715;DHT22;4394;51.208;8.904;2023-05-10T00:57:08;15.90;99.90
8715;DHT22;4394;51.208;8.904;2023-05-10T00:59:58;16.00;99.90
8715;DHT22;4394;51.208;8.904;2023-05-10T01:02:46;16.00;99.90
8715;DHT22;4394;51.208;8.904;2023-05-10T01:05:36;16.00;99.90
8715;DHT22;4394;51.208;8.904;2023-05-10T01:08:28;16.00;99.90
8715;DHT22;4394;51.208;8.904;2023-05-10T01:11:17;16.00;99.90
8715;DHT22;4394;51.208;8.904;2023-05-10T01:14:06;15.90;99.90
8715;DHT22;4394;51.208;8.904;2023-05-10T01:16:55;15.80;99.90
8715;DHT22;4394;51.208;8.904;2023-05-10T01:19:43;15.90;99.90
8715;DHT22;4394;51.208;8.904;2023-05-10T01:29:30;15.80;99.90
8715;DHT22;4394;51.208;8.904;2023-05-10T01:32:27;15.70;99.90
8715;DHT22;4394;51.208;8.904;2023-05-10T01:35:25;15.70;99.90
8715;DHT22;4394;51.208;8.904;2023-05-10T01:38:18;15.70;99.90
8715;DHT22;4394;51.208;8.904;2023-05-10T01:41:16;15.60;99.90
8715;DHT22;4394;51.208;8.904;2023-05-10T01:44:11;15.60;99.90
8715;DHT22;4394;51.208;8.904;2023-05-10T01:47:05;15.60;99.90
8715;DHT22;4394;51.208;8.904;2023-05-10T01:49:56;15.60;99.90
8715;DHT22;4394;51.208;8.904;2023-05-10T01:52:50;15.60;99.90
8715;DHT22;4394;51.208;8.904;2023-05-10T01:55:43;15.50;99.90
8715;DHT22;4394;51.208;8.904;2023-05-10T01:58:32;15.40;99.90
8715;DHT22;4394;51.208;8.904;2023-05-10T02:01:22;15.30;99.90
8715;DHT22;4394;51.208;8.904;2023-05-10T02:04:14;15.30;99.90
8715;DHT22;4394;51.208;8.904;2023-05-10T02:07:04;15.30;99.90
8715;DHT22;4394;51.208;8.904;2023-05-10T02:09:54;15.20;99.90
8715;DHT22;4394;51.208;8.904;2023-05-10T02:12:44;15.10;99.90
8715;DHT22;4394;51.208;8.904;2023-05-10T02:15:34;15.00;99.90
8715;DHT22;4394;51.208;8.904;2023-05-10T02:18:24;14.90;99.90
8715;DHT22;4394;51.208;8.904;2023-05-10T02:21:14;14.80;99.90
8715;DHT22;4394;51.208;8.904;2023-05-10T02:24:05;14.80;99.90
8715;DHT22;4394;51.208;8.904;2023-05-10T02:26:55;14.70;99.90
8715;DHT22;4394;51.208;8.904;2023-05-10T02:29:44;14.60;99.90
8715;DHT22;4394;51.208;8.904;2023-05-10T02:32:34;14.60;99.90
8715;DHT22;4394;51.208;8.904;2023-05-10T02:35:24;14.50;99.90
8715;DHT22;4394;51.208;8.904;2023-05-10T02:38:13;14.50;99.90
8715;DHT22;4394;51.208;8.904;2023-05-10T02:41:04;14.50;99.90
8715;DHT22;4394;51.208;8.904;2023-05-10T02:43:57;14.50;99.90
8715;DHT22;4394;51.208;8.904;2023-05-10T02:46:47;14.50;99.90
8715;DHT22;4394;51.208;8.904;2023-05-10T02:49:35;14.40;99.90
8715;DHT22;4394;51.208;8.904;2023-05-10T02:52:25;14.40;99.90
8715;DHT22;4394;51.208;8.904;2023-05-10T02:55:15;14.40;99.90
8715;DHT22;4394;51.208;8.904;2023-05-10T02:58:05;14.40;99.90
8715;DHT22;4394;51.208;8.904;2023-05-10T03:00:54;14.40;99.90
8715;DHT22;4394;51.208;8.904;2023-05-10T03:03:42;14.40;99.90
8715;DHT22;4394;51.208;8.904;2023-05-10T03:06:30;14.40;99.90
8715;DHT22;4394;51.208;8.904;2023-05-10T03:09:18;14.50;99.90
8715;DHT22;4394;51.208;8.904;2023-05-10T03:12:11;14.40;99.90
8715;DHT22;4394;51.208;8.904;2023-05-10T03:15:07;14.40;99.90
8715;DHT22;4394;51.208;8.904;2023-05-10T03:18:03;14.40;99.90
8715;DHT22;4394;51.208;8.904;2023-05-10T03:20:58;14.40;99.90
8715;DHT22;4394;51.208;8.904;2023-05-10T03:23:50;14.40;99.90
8715;DHT22;4394;51.208;8.904;2023-05-10T03:26:39;14.50;99.90
8715;DHT22;4394;51.208;8.904;2023-05-10T03:29:28;14.40;99.90
8715;DHT22;4394;51.208;8.904;2023-05-10T03:32:18;14.40;99.90
8715;DHT22;4394;51.208;8.904;2023-05-10T03:35:07;14.40;99.90
8715;DHT22;4394;51.208;8.904;2023-05-10T03:37:56;14.40;99.90
8715;DHT22;4394;51.208;8.904;2023-05-10T03:40:44;14.40;99.90
8715;DHT22;4394;51.208;8.904;2023-05-10T03:43:32;14.40;99.90
8715;DHT22;4394;51.208;8.904;2023-05-10T03:46:20;14.30;99.90
8715;DHT22;4394;51.208;8.904;2023-05-10T03:49:10;14.30;99.90
8715;DHT22;4394;51.208;8.904;2023-05-10T03:51:58;14.30;99.90
8715;DHT22;4394;51.208;8.904;2023-05-10T03:54:46;14.30;99.90
8715;DHT22;4394;51.208;8.904;2023-05-10T03:57:34;14.30;99.90
8715;DHT22;4394;51.208;8.904;2023-05-10T04:00:23;14.30;99.90
8715;DHT22;4394;51.208;8.904;2023-05-10T04:03:11;14.40;99.90
8715;DHT22;4394;51.208;8.904;2023-05-10T04:06:01;14.40;99.90
8715;DHT22;4394;51.208;8.904;2023-05-10T04:08:49;14.40;99.90
8715;DHT22;4394;51.208;8.904;2023-05-10T04:11:37;14.30;99.90
8715;DHT22;4394;51.208;8.904;2023-05-10T04:14:26;14.30;99.90
8715;DHT22;4394;51.208;8.904;2023-05-10T04:17:14;14.30;99.90
8715;DHT22;4394;51.208;8.904;2023-05-10T04:20:02;14.30;99.90
8715;DHT22;4394;51.208;8.904;2023-05-10T04:22:52;14.30;99.90
8715;DHT22;4394;51.208;8.904;2023-05-10T04:25:40;14.30;99.90
8715;DHT22;4394;51.208;8.904;2023-05-10T04:28:28;14.30;99.90
8715;DHT22;4394;51.208;8.904;2023-05-10T04:31:17;14.20;99.90
8715;DHT22;4394;51.208;8.904;2023-05-10T04:34:07;14.30;99.90
8715;DHT22;4394;51.208;8.904;2023-05-10T04:36:55;14.30;99.90
8715;DHT22;4394;51.208;8.904;2023-05-10T04:39:45;14.30;99.90
8715;DHT22;4394;51.208;8.904;2023-05-10T04:42:34;14.30;99.90
8715;DHT22;4394;51.208;8.904;2023-05-10T04:45:22;14.70;99.90
8715;DHT22;4394;51.208;8.904;2023-05-10T04:48:10;14.50;99.90
8715;DHT22;4394;51.208;8.904;2023-05-10T04:50:59;14.40;99.90
8715;DHT22;4394;51.208;8.904;2023-05-10T04:53:47;14.40;99.90
8715;DHT22;4394;51.208;8.904;2023-05-10T04:56:52;14.30;99.90
8715;DHT22;4394;51.208;8.904;2023-05-10T04:59:40;14.30;99.90
8715;DHT22;4394;51.208;8.904;2023-05-10T05:02:28;14.30;99.90
8715;DHT22;4394;51.208;8.904;2023-05-10T05:05:16;14.30;99.90
8715;DHT22;4394;51.208;8.904;2023-05-10T05:08:04;14.40;99.90
8715;DHT22;4394;51.208;8.904;2023-05-10T05:10:52;14.40;99.90
8715;DHT22;4394;51.208;8.904;2023-05-10T05:13:42;14.40;99.90
8715;DHT22;4394;51.208;8.904;2023-05-10T05:16:30;14.40;99.90
8715;DHT22;4394;51.208;8.904;2023-05-10T05:19:19;14.50;99.90
8715;DHT22;4394;51.208;8.904;2023-05-10T05:22:07;14.50;99.90
8715;DHT22;4394;51.208;8.904;2023-05-10T05:24:55;14.50;99.90
8715;DHT22;4394;51.208;8.904;2023-05-10T05:27:45;14.50;99.90
8715;DHT22;4394;51.208;8.904;2023-05-10T05:30:34;14.50;99.90
8715;DHT22;4394;51.208;8.904;2023-05-10T05:33:22;14.50;99.90
8715;DHT22;4394;51.208;8.904;2023-05-10T05:36:10;14.40;99.90
8715;DHT22;4394;51.208;8.904;2023-05-10T05:38:58;14.40;99.90
8715;DHT22;4394;51.208;8.904;2023-05-10T05:41:46;14.40;99.90
8715;DHT22;4394;51.208;8.904;2023-05-10T05:44:34;14.40;99.90
8715;DHT22;4394;51.208;8.904;2023-05-10T05:47:23;14.40;99.90
8715;DHT22;4394;51.208;8.904;2023-05-10T05:50:12;14.50;99.90
8715;DHT22;4394;51.208;8.904;2023-05-10T05:53:00;14.40;99.90
8715;DHT22;4394;51.208;8.904;2023-05-10T05:55:52;14.40;99.90
8715;DHT22;4394;51.208;8.904;2023-05-10T05:58:40;14.40;99.90
8715;DHT22;4394;51.208;8.904;2023-05-10T06:01:28;14.40;99.90
8715;DHT22;4394;51.208;8.904;2023-05-10T06:04:18;14.40;99.90
8715;DHT22;4394;51.208;8.904;2023-05-10T06:07:06;14.40;99.90
8715;DHT22;4394;51.208;8.904;2023-05-10T06:09:54;14.40;99.90
8715;DHT22;4394;51.208;8.904;2023-05-10T06:12:42;14.50;99.90
8715;DHT22;4394;51.208;8.904;2023-05-10T06:15:30;14.50;99.90
8715;DHT22;4394;51.208;8.904;2023-05-10T06:18:19;14.50;99.90
8715;DHT22;4394;51.208;8.904;2023-05-10T06:21:08;14.50;99.90
8715;DHT22;4394;51.208;8.904;2023-05-10T06:23:56;14.50;99.90
8715;DHT22;4394;51.208;8.904;2023-05-10T06:26:44;14.60;99.90
8715;DHT22;4394;51.208;8.904;2023-05-10T06:29:32;14.60;99.90
8715;DHT22;4394;51.208;8.904;2023-05-10T06:32:21;14.60;99.90
8715;DHT22;4394;51.208;8.904;2023-05-10T06:35:09;14.70;99.90
8715;DHT22;4394;51.208;8.904;2023-05-10T06:37:58;14.70;99.90
8715;DHT22;4394;51.208;8.904;2023-05-10T06:40:47;14.80;99.90
8715;DHT22;4394;51.208;8.904;2023-05-10T06:43:35;14.90;99.90
8715;DHT22;4394;51.208;8.904;2023-05-10T06:46:26;15.00;99.90
8715;DHT22;4394;51.208;8.904;2023-05-10T06:49:14;14.90;99.90
8715;DHT22;4394;51.208;8.904;2023-05-10T06:52:03;15.10;99.90
8715;DHT22;4394;51.208;8.904;2023-05-10T06:54:53;15.10;99.90
8715;DHT22;4394;51.208;8.904;2023-05-10T06:57:41;15.10;99.90
8715;DHT22;4394;51.208;8.904;2023-05-10T07:00:29;15.10;99.90
8715;DHT22;4394;51.208;8.904;2023-05-10T07:03:17;15.20;99.90
8715;DHT22;4394;51.208;8.904;2023-05-10T07:06:05;15.20;99.90
8715;DHT22;4394;51.208;8.904;2023-05-10T07:09:04;15.30;99.90
8715;DHT22;4394;51.208;8.904;2023-05-10T07:11:53;15.30;99.90
8715;DHT22;4394;51.208;8.904;2023-05-10T07:14:42;15.20;99.90
8715;DHT22;4394;51.208;8.904;2023-05-10T07:17:30;15.10;99.90
8715;DHT22;4394;51.208;8.904;2023-05-10T07:20:18;15.10;99.90
8715;DHT22;4394;51.208;8.904;2023-05-10T07:23:06;15.20;99.90
8715;DHT22;4394;51.208;8.904;2023-05-10T07:25:54;15.20;99.90
8715;DHT22;4394;51.208;8.904;2023-05-10T07:28:45;15.20;99.90
8715;DHT22;4394;51.208;8.904;2023-05-10T07:31:33;15.20;99.90
8715;DHT22;4394;51.208;8.904;2023-05-10T07:34:21;15.10;99.90
8715;DHT22;4394;51.208;8.904;2023-05-10T07:37:09;15.10;99.90
8715;DHT22;4394;51.208;8.904;2023-05-10T07:39:58;15.00;99.90
8715;DHT22;4394;51.208;8.904;2023-05-10T07:42:46;15.10;99.90
8715;DHT22;4394;51.208;8.904;2023-05-10T07:45:35;15.10;99.90
8715;DHT22;4394;51.208;8.904;2023-05-10T07:48:23;15.20;99.90
8715;DHT22;4394;51.208;8.904;2023-05-10T07:51:11;15.30;99.90
8715;DHT22;4394;51.208;8.904;2023-05-10T07:53:59;15.30;99.90
8715;DHT22;4394;51.208;8.904;2023-05-10T07:56:48;15.40;99.90
8715;DHT22;4394;51.208;8.904;2023-05-10T07:59:36;15.50;99.90
8715;DHT22;4394;51.208;8.904;2023-05-10T08:02:26;15.50;99.90
8715;DHT22;4394;51.208;8.904;2023-05-10T08:05:14;15.50;99.90
8715;DHT22;4394;51.208;8.904;2023-05-10T08:08:03;15.40;99.90
8715;DHT22;4394;51.208;8.904;2023-05-10T08:10:51;15.40;99.90
8715;DHT22;4394;51.208;8.904;2023-05-10T08:13:39;15.50;99.90
8715;DHT22;4394;51.208;8.904;2023-05-10T08:16:27;15.60;99.90
8715;DHT22;4394;51.208;8.904;2023-05-10T08:19:17;15.80;99.90
8715;DHT22;4394;51.208;8.904;2023-05-10T08:22:06;15.80;99.90
8715;DHT22;4394;51.208;8.904;2023-05-10T08:24:54;15.90;99.90
8715;DHT22;4394;51.208;8.904;2023-05-10T08:27:42;15.90;99.90
8715;DHT22;4394;51.208;8.904;2023-05-10T08:30:31;15.90;99.90
8715;DHT22;4394;51.208;8.904;2023-05-10T08:33:19;16.00;99.90
8715;DHT22;4394;51.208;8.904;2023-05-10T08:36:09;16.00;99.90
8715;DHT22;4394;51.208;8.904;2023-05-10T08:38:58;16.00;99.90
8715;DHT22;4394;51.208;8.904;2023-05-10T08:41:47;16.00;99.90
8715;DHT22;4394;51.208;8.904;2023-05-10T08:44:36;16.10;99.90
8715;DHT22;4394;51.208;8.904;2023-05-10T08:47:25;16.10;99.90
8715;DHT22;4394;51.208;8.904;2023-05-10T08:50:14;16.10;99.90
8715;DHT22;4394;51.208;8.904;2023-05-10T08:53:09;16.10;99.90
8715;DHT22;4394;51.208;8.904;2023-05-10T08:55:57;16.20;99.90
8715;DHT22;4394;51.208;8.904;2023-05-10T08:58:45;16.40;99.90
8715;DHT22;4394;51.208;8.904;2023-05-10T09:01:35;16.50;99.90
8715;DHT22;4394;51.208;8.904;2023-05-10T09:04:24;16.60;99.90
8715;DHT22;4394;51.208;8.904;2023-05-10T09:07:12;16.80;99.90
8715;DHT22;4394;51.208;8.904;2023-05-10T09:10:02;16.90;99.90
8715;DHT22;4394;51.208;8.904;2023-05-10T09:12:50;16.90;99.90
8715;DHT22;4394;51.208;8.904;2023-05-10T09:15:38;16.80;99.90
8715;DHT22;4394;51.208;8.904;2023-05-10T09:18:26;16.90;99.90
8715;DHT22;4394;51.208;8.904;2023-05-10T09:21:15;16.80;99.90
8715;DHT22;4394;51.208;8.904;2023-05-10T09:24:03;16.80;99.90
8715;DHT22;4394;51.208;8.904;2023-05-10T09:26:53;16.80;99.90
8715;DHT22;4394;51.208;8.904;2023-05-10T09:29:43;16.80;99.90
8715;DHT22;4394;51.208;8.904;2023-05-10T09:32:39;16.80;99.90
8715;DHT22;4394;51.208;8.904;2023-05-10T09:35:28;16.80;99.90
8715;DHT22;4394;51.208;8.904;2023-05-10T09:38:17;16.80;99.90
8715;DHT22;4394;51.208;8.904;2023-05-10T09:41:15;16.90;99.90
8715;DHT22;4394;51.208;8.904;2023-05-10T09:44:07;17.10;99.90
8715;DHT22;4394;51.208;8.904;2023-05-10T09:46:55;17.30;99.90
8715;DHT22;4394;51.208;8.904;2023-05-10T09:49:44;17.50;99.90
8715;DHT22;4394;51.208;8.904;2023-05-10T09:52:46;17.60;99.90
8715;DHT22;4394;51.208;8.904;2023-05-10T09:55:39;17.70;99.90
8715;DHT22;4394;51.208;8.904;2023-05-10T09:58:27;17.60;99.90
8715;DHT22;4394;51.208;8.904;2023-05-10T10:01:17;17.60;99.90
8715;DHT22;4394;51.208;8.904;2023-05-10T10:04:06;17.50;99.90
8715;DHT22;4394;51.208;8.904;2023-05-10T10:07:02;17.50;99.90
8715;DHT22;4394;51.208;8.904;2023-05-10T10:09:51;17.50;99.90
8715;DHT22;4394;51.208;8.904;2023-05-10T10:12:40;17.50;99.90
8715;DHT22;4394;51.208;8.904;2023-05-10T10:15:28;17.50;99.90
8715;DHT22;4394;51.208;8.904;2023-05-10T10:18:18;17.50;99.90
8715;DHT22;4394;51.208;8.904;2023-05-10T10:21:10;17.50;99.90
8715;DHT22;4394;51.208;8.904;2023-05-10T10:24:01;17.50;99.90
8715;DHT22;4394;51.208;8.904;2023-05-10T10:26:52;17.50;99.90
8715;DHT22;4394;51.208;8.904;2023-05-10T10:29:50;17.40;99.90
8715;DHT22;4394;51.208;8.904;2023-05-10T10:32:52;17.40;99.90
8715;DHT22;4394;51.208;8.904;2023-05-10T10:35:59;17.30;99.90
8715;DHT22;4394;51.208;8.904;2023-05-10T10:39:00;17.20;99.90
8715;DHT22;4394;51.208;8.904;2023-05-10T10:41:52;17.20;99.90
8715;DHT22;4394;51.208;8.904;2023-05-10T10:44:40;17.10;99.90
8715;DHT22;4394;51.208;8.904;2023-05-10T10:47:29;17.10;99.90
8715;DHT22;4394;51.208;8.904;2023-05-10T10:50:19;17.10;99.90
8715;DHT22;4394;51.208;8.904;2023-05-10T10:53:11;17.10;99.90
8715;DHT22;4394;51.208;8.904;2023-05-10T10:56:07;17.20;99.90
8715;DHT22;4394;51.208;8.904;2023-05-10T10:58:59;17.20;99.90
8715;DHT22;4394;51.208;8.904;2023-05-10T11:01:51;17.20;99.90
8715;DHT22;4394;51.208;8.904;2023-05-10T11:04:43;17.20;99.90
8715;DHT22;4394;51.208;8.904;2023-05-10T11:07:33;17.30;99.90
8715;DHT22;4394;51.208;8.904;2023-05-10T11:10:23;17.30;99.90
8715;DHT22;4394;51.208;8.904;2023-05-10T11:13:12;17.40;99.90
8715;DHT22;4394;51.208;8.904;2023-05-10T11:16:10;17.50;99.90
8715;DHT22;4394;51.208;8.904;2023-05-10T11:19:01;17.70;99.90
8715;DHT22;4394;51.208;8.904;2023-05-10T11:21:52;17.80;99.90
8715;DHT22;4394;51.208;8.904;2023-05-10T11:24:59;17.80;99.90
8715;DHT22;4394;51.208;8.904;2023-05-10T11:27:50;17.90;99.90
8715;DHT22;4394;51.208;8.904;2023-05-10T11:30:40;18.00;99.90
8715;DHT22;4394;51.208;8.904;2023-05-10T11:33:28;18.10;99.90
8715;DHT22;4394;51.208;8.904;2023-05-10T11:36:18;18.10;99.90
8715;DHT22;4394;51.208;8.904;2023-05-10T11:39:06;18.30;99.90
8715;DHT22;4394;51.208;8.904;2023-05-10T11:41:54;18.30;99.90
8715;DHT22;4394;51.208;8.904;2023-05-10T11:44:45;18.50;99.90
8715;DHT22;4394;51.208;8.904;2023-05-10T11:47:34;18.60;99.90
8715;DHT22;4394;51.208;8.904;2023-05-10T11:50:24;18.80;99.90
8715;DHT22;4394;51.208;8.904;2023-05-10T11:53:13;19.00;99.90
8715;DHT22;4394;51.208;8.904;2023-05-10T11:56:05;19.10;99.90
8715;DHT22;4394;51.208;8.904;2023-05-10T11:58:54;19.00;99.90
8715;DHT22;4394;51.208;8.904;2023-05-10T12:01:44;19.10;99.90
8715;DHT22;4394;51.208;8.904;2023-05-10T12:04:32;19.10;99.90
8715;DHT22;4394;51.208;8.904;2023-05-10T12:07:20;19.10;99.90
8715;DHT22;4394;51.208;8.904;2023-05-10T12:10:10;19.20;99.90
8715;DHT22;4394;51.208;8.904;2023-05-10T12:13:01;19.20;99.90
8715;DHT22;4394;51.208;8.904;2023-05-10T12:15:50;19.30;99.90
8715;DHT22;4394;51.208;8.904;2023-05-10T12:18:40;19.40;99.90
8715;DHT22;4394;51.208;8.904;2023-05-10T12:21:30;19.50;99.90
8715;DHT22;4394;51.208;8.904;2023-05-10T12:24:19;19.70;99.90
8715;DHT22;4394;51.208;8.904;2023-05-10T12:27:09;19.70;99.90
8715;DHT22;4394;51.208;8.904;2023-05-10T12:29:59;19.70;99.90
8715;DHT22;4394;51.208;8.904;2023-05-10T12:32:47;19.60;99.90
8715;DHT22;4394;51.208;8.904;2023-05-10T12:35:45;19.50;99.90
8715;DHT22;4394;51.208;8.904;2023-05-10T12:38:35;19.50;99.90
8715;DHT22;4394;51.208;8.904;2023-05-10T12:41:24;19.40;99.90
8715;DHT22;4394;51.208;8.904;2023-05-10T12:44:12;19.20;99.90
8715;DHT22;4394;51.208;8.904;2023-05-10T12:47:00;19.10;99.90
8715;DHT22;4394;51.208;8.904;2023-05-10T12:49:49;19.00;99.90
8715;DHT22;4394;51.208;8.904;2023-05-10T12:52:39;18.80;99.90
8715;DHT22;4394;51.208;8.904;2023-05-10T12:55:27;18.70;99.90
8715;DHT22;4394;51.208;8.904;2023-05-10T12:58:15;18.60;99.90
8715;DHT22;4394;51.208;8.904;2023-05-10T13:01:20;18.60;99.90
8715;DHT22;4394;51.208;8.904;2023-05-10T13:04:08;18.50;99.90
8715;DHT22;4394;51.208;8.904;2023-05-10T13:06:56;18.50;99.90
8715;DHT22;4394;51.208;8.904;2023-05-10T13:09:47;18.40;99.90
8715;DHT22;4394;51.208;8.904;2023-05-10T13:12:35;18.30;99.90
8715;DHT22;4394;51.208;8.904;2023-05-10T13:15:23;18.20;99.90
8715;DHT22;4394;51.208;8.904;2023-05-10T13:18:11;17.90;99.90
8715;DHT22;4394;51.208;8.904;2023-05-10T13:20:59;17.60;99.90
8715;DHT22;4394;51.208;8.904;2023-05-10T13:23:47;17.30;99.90
8715;DHT22;4394;51.208;8.904;2023-05-10T13:26:37;17.10;99.90
8715;DHT22;4394;51.208;8.904;2023-05-10T13:29:25;17.00;99.90
8715;DHT22;4394;51.208;8.904;2023-05-10T13:32:13;16.90;99.90
8715;DHT22;4394;51.208;8.904;2023-05-10T13:35:01;16.80;99.90
8715;DHT22;4394;51.208;8.904;2023-05-10T13:37:50;16.70;99.90
8715;DHT22;4394;51.208;8.904;2023-05-10T13:40:38;16.60;99.90
8715;DHT22;4394;51.208;8.904;2023-05-10T13:43:29;16.50;99.90
8715;DHT22;4394;51.208;8.904;2023-05-10T13:46:17;16.40;99.90
8715;DHT22;4394;51.208;8.904;2023-05-10T13:49:05;16.20;99.90
8715;DHT22;4394;51.208;8.904;2023-05-10T13:51:53;16.20;99.90
8715;DHT22;4394;51.208;8.904;2023-05-10T13:54:41;16.10;99.90
8715;DHT22;4394;51.208;8.904;2023-05-10T13:57:29;15.90;99.90
8715;DHT22;4394;51.208;8.904;2023-05-10T14:00:19;15.80;99.90
8715;DHT22;4394;51.208;8.904;2023-05-10T14:03:07;15.70;99.90
8715;DHT22;4394;51.208;8.904;2023-05-10T14:05:58;15.60;99.90
8715;DHT22;4394;51.208;8.904;2023-05-10T14:08:46;15.40;99.90
8715;DHT22;4394;51.208;8.904;2023-05-10T14:11:34;15.30;99.90
8715;DHT22;4394;51.208;8.904;2023-05-10T14:14:22;15.20;99.90
8715;DHT22;4394;51.208;8.904;2023-05-10T14:17:11;15.10;99.90
8715;DHT22;4394;51.208;8.904;2023-05-10T14:19:59;15.00;99.90
8715;DHT22;4394;51.208;8.904;2023-05-10T14:22:48;15.00;99.90
8715;DHT22;4394;51.208;8.904;2023-05-10T14:25:36;15.00;99.90
8715;DHT22;4394;51.208;8.904;2023-05-10T14:28:24;15.00;99.90
8715;DHT22;4394;51.208;8.904;2023-05-10T14:31:12;15.10;99.90
8715;DHT22;4394;51.208;8.904;2023-05-10T14:34:02;15.00;99.90
8715;DHT22;4394;51.208;8.904;2023-05-10T14:36:50;14.90;99.90
8715;DHT22;4394;51.208;8.904;2023-05-10T14:39:38;14.90;99.90
8715;DHT22;4394;51.208;8.904;2023-05-10T14:42:26;14.80;99.90
8715;DHT22;4394;51.208;8.904;2023-05-10T14:45:15;14.80;99.90
8715;DHT22;4394;51.208;8.904;2023-05-10T14:48:03;14.90;99.90
8715;DHT22;4394;51.208;8.904;2023-05-10T14:50:54;14.90;99.90
8715;DHT22;4394;51.208;8.904;2023-05-10T14:53:42;15.00;99.90
8715;DHT22;4394;51.208;8.904;2023-05-10T14:56:30;15.00;99.90
8715;DHT22;4394;51.208;8.904;2023-05-10T14:59:19;14.90;99.90
8715;DHT22;4394;51.208;8.904;2023-05-10T15:02:08;15.00;99.90
8715;DHT22;4394;51.208;8.904;2023-05-10T15:04:57;15.00;99.90
8715;DHT22;4394;51.208;8.904;2023-05-10T15:07:47;15.00;99.90
8715;DHT22;4394;51.208;8.904;2023-05-10T15:10:36;15.10;99.90
8715;DHT22;4394;51.208;8.904;2023-05-10T15:13:24;15.10;99.90
8715;DHT22;4394;51.208;8.904;2023-05-10T15:16:12;15.10;99.90
8715;DHT22;4394;51.208;8.904;2023-05-10T15:19:00;15.10;99.90
8715;DHT22;4394;51.208;8.904;2023-05-10T15:21:48;15.10;99.90
8715;DHT22;4394;51.208;8.904;2023-05-10T15:24:38;15.20;99.90
8715;DHT22;4394;51.208;8.904;2023-05-10T15:27:26;15.10;99.90
8715;DHT22;4394;51.208;8.904;2023-05-10T15:30:14;15.10;99.90
8715;DHT22;4394;51.208;8.904;2023-05-10T15:33:02;15.10;99.90
8715;DHT22;4394;51.208;8.904;2023-05-10T15:35:50;15.10;99.90
8715;DHT22;4394;51.208;8.904;2023-05-10T15:38:40;15.20;99.90
8715;DHT22;4394;51.208;8.904;2023-05-10T15:41:29;15.20;99.90
8715;DHT22;4394;51.208;8.904;2023-05-10T15:44:17;15.30;99.90
8715;DHT22;4394;51.208;8.904;2023-05-10T15:47:05;15.30;99.90
8715;DHT22;4394;51.208;8.904;2023-05-10T15:49:53;15.30;99.90
8715;DHT22;4394;51.208;8.904;2023-05-10T15:52:41;15.30;99.90
8715;DHT22;4394;51.208;8.904;2023-05-10T15:55:29;15.40;99.90
8715;DHT22;4394;51.208;8.904;2023-05-10T15:58:19;15.40;99.90
8715;DHT22;4394;51.208;8.904;2023-05-10T16:01:07;15.60;99.90
8715;DHT22;4394;51.208;8.904;2023-05-10T16:03:55;15.70;99.90
8715;DHT22;4394;51.208;8.904;2023-05-10T16:06:43;15.80;99.90
8715;DHT22;4394;51.208;8.904;2023-05-10T16:09:31;15.90;99.90
8715;DHT22;4394;51.208;8.904;2023-05-10T16:12:19;16.10;99.90
8715;DHT22;4394;51.208;8.904;2023-05-10T16:15:09;16.10;99.90
8715;DHT22;4394;51.208;8.904;2023-05-10T16:17:57;16.20;99.90
8715;DHT22;4394;51.208;8.904;2023-05-10T16:20:46;16.20;99.90
8715;DHT22;4394;51.208;8.904;2023-05-10T16:23:34;16.20;99.90
8715;DHT22;4394;51.208;8.904;2023-05-10T16:26:22;16.20;99.90
8715;DHT22;4394;51.208;8.904;2023-05-10T16:29:10;16.30;99.90
8715;DHT22;4394;51.208;8.904;2023-05-10T16:32:00;16.20;99.90
8715;DHT22;4394;51.208;8.904;2023-05-10T16:34:48;16.20;99.90
8715;DHT22;4394;51.208;8.904;2023-05-10T16:37:36;16.10;99.90
8715;DHT22;4394;51.208;8.904;2023-05-10T16:40:24;16.10;99.90
8715;DHT22;4394;51.208;8.904;2023-05-10T16:43:12;16.10;99.90
8715;DHT22;4394;51.208;8.904;2023-05-10T16:46:00;16.10;99.90
8715;DHT22;4394;51.208;8.904;2023-05-10T16:48:50;16.10;99.90
8715;DHT22;4394;51.208;8.904;2023-05-10T16:51:38;16.10;99.90
8715;DHT22;4394;51.208;8.904;2023-05-10T16:54:27;16.00;99.90
8715;DHT22;4394;51.208;8.904;2023-05-10T16:57:15;16.00;99.90
8715;DHT22;4394;51.208;8.904;2023-05-10T17:00:04;16.00;99.90
8715;DHT22;4394;51.208;8.904;2023-05-10T17:02:53;16.00;99.90
8715;DHT22;4394;51.208;8.904;2023-05-10T17:05:43;16.00;99.90
8715;DHT22;4394;51.208;8.904;2023-05-10T17:08:31;16.00;99.90
8715;DHT22;4394;51.208;8.904;2023-05-10T17:11:19;15.90;99.90
8715;DHT22;4394;51.208;8.904;2023-05-10T17:14:07;16.00;99.90
8715;DHT22;4394;51.208;8.904;2023-05-10T17:16:55;15.90;99.90
8715;DHT22;4394;51.208;8.904;2023-05-10T17:19:44;15.90;99.90
8715;DHT22;4394;51.208;8.904;2023-05-10T17:22:33;15.90;99.90
8715;DHT22;4394;51.208;8.904;2023-05-10T17:25:21;15.80;99.90
8715;DHT22;4394;51.208;8.904;2023-05-10T17:28:09;15.80;99.90
8715;DHT22;4394;51.208;8.904;2023-05-10T17:30:57;15.80;99.90
8715;DHT22;4394;51.208;8.904;2023-05-10T17:33:45;15.80;99.90
8715;DHT22;4394;51.208;8.904;2023-05-10T17:36:33;15.80;99.90
8715;DHT22;4394;51.208;8.904;2023-05-10T17:39:23;15.80;99.90
8715;DHT22;4394;51.208;8.904;2023-05-10T17:42:11;15.70;99.90
8715;DHT22;4394;51.208;8.904;2023-05-10T17:45:02;15.70;99.90
8715;DHT22;4394;51.208;8.904;2023-05-10T17:47:50;15.70;99.90
8715;DHT22;4394;51.208;8.904;2023-05-10T17:50:40;15.60;99.90
8715;DHT22;4394;51.208;8.904;2023-05-10T17:53:29;15.60;99.90
8715;DHT22;4394;51.208;8.904;2023-05-10T17:56:18;15.50;99.90
8715;DHT22;4394;51.208;8.904;2023-05-10T17:59:07;15.50;99.90
8715;DHT22;4394;51.208;8.904;2023-05-10T18:01:55;15.50;99.90
8715;DHT22;4394;51.208;8.904;2023-05-10T18:04:43;15.50;99.90
8715;DHT22;4394;51.208;8.904;2023-05-10T18:07:32;15.50;99.90
8715;DHT22;4394;51.208;8.904;2023-05-10T18:10:22;15.50;99.90
8715;DHT22;4394;51.208;8.904;2023-05-10T18:13:12;15.40;99.90
8715;DHT22;4394;51.208;8.904;2023-05-10T18:16:00;15.40;99.90
8715;DHT22;4394;51.208;8.904;2023-05-10T18:18:49;15.40;99.90
8715;DHT22;4394;51.208;8.904;2023-05-10T18:21:37;15.40;99.90
8715;DHT22;4394;51.208;8.904;2023-05-10T18:24:25;15.30;99.90
8715;DHT22;4394;51.208;8.904;2023-05-10T18:27:26;15.30;99.90
8715;DHT22;4394;51.208;8.904;2023-05-10T18:30:15;15.30;99.90
8715;DHT22;4394;51.208;8.904;2023-05-10T18:33:04;15.30;99.90